Time;durP1;ratioP1;P1;durP2;ratioP2;P2;SDS_P1;SDS_P2;PMS_P1;PMS_P2;Temp;Humidity;BMP_temperature;BMP_pressure;BME280_temperature;BME280_humidity;BME280_pressure;Samples;Min_cycle;Max_cycle;Signal;HPM_P1;HPM_P2
2019/12/14 00:02:13;;;;;;;1.96;1.30;;;;;;;19.98;41.90;98080.71;;;;-50
2019/12/14 00:05:07;;;;;;;1.82;1.20;;;;;;;19.96;41.86;98096.47;;;;-50
2019/12/14 00:08:07;;;;;;;1.29;1.19;;;;;;;19.95;41.95;98090.75;;;;-50
2019/12/14 00:11:06;;;;;;;1.63;1.15;;;;;;;19.94;41.88;98096.61;;;;-51
2019/12/14 00:14:07;;;;;;;1.42;1.15;;;;;;;19.91;41.89;98095.76;;;;-50
2019/12/14 00:17:07;;;;;;;1.78;1.20;;;;;;;19.89;41.92;98096.34;;;;-47
2019/12/14 00:20:07;;;;;;;2.79;1.13;;;;;;;19.88;41.94;98092.41;;;;-45
2019/12/14 00:23:07;;;;;;;1.57;1.13;;;;;;;19.86;41.93;98097.57;;;;-50
2019/12/14 00:26:07;;;;;;;1.68;1.18;;;;;;;19.85;41.90;98096.73;;;;-51
2019/12/14 00:29:07;;;;;;;1.27;1.17;;;;;;;19.83;41.93;98096.92;;;;-46
2019/12/14 00:32:06;;;;;;;1.71;1.36;;;;;;;19.82;41.93;98103.52;;;;-46
2019/12/14 00:35:06;;;;;;;1.34;1.18;;;;;;;19.81;41.86;98093.38;;;;-47
2019/12/14 00:38:07;;;;;;;1.71;1.20;;;;;;;19.79;41.93;98099.80;;;;-49
2019/12/14 00:41:07;;;;;;;1.47;1.11;;;;;;;19.77;41.90;98095.55;;;;-46
2019/12/14 00:44:07;;;;;;;2.11;1.05;;;;;;;19.76;41.89;98090.09;;;;-51
2019/12/14 00:47:07;;;;;;;1.65;1.20;;;;;;;19.74;41.90;98079.36;;;;-52
2019/12/14 00:50:06;;;;;;;1.68;1.10;;;;;;;19.73;41.93;98072.73;;;;-52
2019/12/14 00:53:07;;;;;;;1.41;1.23;;;;;;;19.70;41.95;98066.30;;;;-52
2019/12/14 00:56:07;;;;;;;1.35;1.09;;;;;;;19.70;41.96;98067.36;;;;-47
2019/12/14 00:59:07;;;;;;;1.58;1.30;;;;;;;19.67;42.00;98067.13;;;;-51
2019/12/14 01:02:07;;;;;;;1.65;1.12;;;;;;;19.67;42.01;98058.67;;;;-50
2019/12/14 01:05:07;;;;;;;1.38;1.18;;;;;;;19.64;41.98;98052.37;;;;-47
2019/12/14 01:08:17;;;;;;;1.08;0.98;;;;;;;19.64;42.03;98047.92;;;;-47
2019/12/14 01:11:07;;;;;;;1.64;1.19;;;;;;;19.63;41.99;98039.56;;;;-46
2019/12/14 01:14:07;;;;;;;1.55;1.09;;;;;;;19.61;42.06;98029.56;;;;-47
2019/12/14 01:17:07;;;;;;;2.03;1.10;;;;;;;19.59;42.05;98035.78;;;;-52
2019/12/14 01:20:07;;;;;;;1.27;1.18;;;;;;;19.58;42.03;98040.19;;;;-51
2019/12/14 01:23:07;;;;;;;1.89;1.23;;;;;;;19.57;42.05;98032.00;;;;-46
2019/12/14 01:26:07;;;;;;;2.31;1.15;;;;;;;19.55;42.05;98031.14;;;;-51
2019/12/14 01:29:07;;;;;;;1.29;1.19;;;;;;;19.54;42.11;98024.54;;;;-52
2019/12/14 01:32:07;;;;;;;1.43;1.15;;;;;;;19.54;42.12;98017.17;;;;-46
2019/12/14 01:35:07;;;;;;;1.95;1.13;;;;;;;19.52;42.12;98004.93;;;;-50
2019/12/14 01:38:07;;;;;;;1.24;1.10;;;;;;;19.50;42.09;97988.34;;;;-47
2019/12/14 01:41:07;;;;;;;1.91;1.21;;;;;;;19.50;42.12;97989.37;;;;-47
2019/12/14 01:44:06;;;;;;;1.58;1.12;;;;;;;19.48;42.07;97979.08;;;;-49
2019/12/14 01:47:06;;;;;;;1.43;1.24;;;;;;;19.47;42.14;97974.79;;;;-48
2019/12/14 01:50:07;;;;;;;1.69;1.19;;;;;;;19.45;42.17;97972.70;;;;-52
2019/12/14 01:53:07;;;;;;;1.30;1.09;;;;;;;19.45;42.11;97961.47;;;;-47
2019/12/14 01:56:07;;;;;;;1.32;1.22;;;;;;;19.43;42.17;97969.60;;;;-48
2019/12/14 01:59:07;;;;;;;1.19;1.09;;;;;;;19.42;42.16;97970.84;;;;-51
2019/12/14 02:06:19;;;;;;;1.72;1.24;;;;;;;19.39;42.17;97934.68;;;;-52
2019/12/14 02:09:07;;;;;;;1.25;1.15;;;;;;;19.39;42.21;97940.02;;;;-46
2019/12/14 02:12:07;;;;;;;1.33;1.10;;;;;;;19.38;42.19;97941.19;;;;-52
2019/12/14 02:15:07;;;;;;;1.34;1.15;;;;;;;19.36;42.19;97927.63;;;;-45
2019/12/14 02:18:07;;;;;;;1.41;1.10;;;;;;;19.35;42.22;97934.06;;;;-48
2019/12/14 02:21:06;;;;;;;1.19;1.07;;;;;;;19.34;42.23;97914.26;;;;-45
2019/12/14 02:24:07;;;;;;;1.07;1.00;;;;;;;19.33;42.24;97909.62;;;;-51
2019/12/14 02:27:07;;;;;;;1.67;1.19;;;;;;;19.32;42.27;97926.52;;;;-48
2019/12/14 02:30:07;;;;;;;1.19;1.05;;;;;;;19.30;42.24;97927.86;;;;-47
2019/12/14 02:33:07;;;;;;;1.10;1.00;;;;;;;19.29;42.25;97938.15;;;;-46
2019/12/14 02:36:06;;;;;;;1.19;1.09;;;;;;;19.28;42.24;97921.32;;;;-49
2019/12/14 02:39:07;;;;;;;1.06;1.04;;;;;;;19.27;42.24;97894.30;;;;-50
2019/12/14 02:42:07;;;;;;;1.25;1.15;;;;;;;19.27;42.21;97897.15;;;;-49
2019/12/14 02:45:07;;;;;;;1.38;1.11;;;;;;;19.26;42.22;97895.75;;;;-51
2019/12/14 02:48:07;;;;;;;1.23;1.00;;;;;;;19.24;42.23;97881.92;;;;-48
2019/12/14 02:51:07;;;;;;;1.76;1.29;;;;;;;19.23;42.27;97886.27;;;;-48
2019/12/14 02:54:06;;;;;;;1.43;1.14;;;;;;;19.23;42.27;97880.73;;;;-51
2019/12/14 02:57:06;;;;;;;1.20;1.10;;;;;;;19.22;42.29;97871.04;;;;-46
2019/12/14 03:00:07;;;;;;;2.05;1.12;;;;;;;19.21;42.28;97868.84;;;;-45
2019/12/14 03:03:07;;;;;;;1.19;1.09;;;;;;;19.20;42.26;97856.48;;;;-47
2019/12/14 03:06:07;;;;;;;1.02;1.01;;;;;;;19.19;42.30;97846.70;;;;-49
2019/12/14 03:09:07;;;;;;;1.26;1.10;;;;;;;19.18;42.31;97836.56;;;;-52
2019/12/14 03:12:06;;;;;;;1.20;1.10;;;;;;;19.17;42.33;97825.02;;;;-49
2019/12/14 03:15:07;;;;;;;1.19;1.09;;;;;;;19.16;42.28;97825.27;;;;-48
2019/12/14 03:18:07;;;;;;;1.13;1.01;;;;;;;19.16;42.31;97812.97;;;;-50
2019/12/14 03:21:07;;;;;;;1.11;1.03;;;;;;;19.15;42.33;97806.44;;;;-49
2019/12/14 03:24:07;;;;;;;1.43;1.06;;;;;;;19.14;42.31;97802.02;;;;-45
2019/12/14 03:30:06;;;;;;;1.44;1.22;;;;;;;19.12;42.32;97789.17;;;;-47
2019/12/14 03:33:06;;;;;;;1.05;0.99;;;;;;;19.11;42.29;97783.64;;;;-45
2019/12/14 03:36:07;;;;;;;1.29;1.10;;;;;;;19.10;42.33;97770.03;;;;-48
2019/12/14 03:39:07;;;;;;;1.11;1.03;;;;;;;19.08;42.36;97763.73;;;;-49
2019/12/14 03:42:07;;;;;;;1.10;1.00;;;;;;;19.07;42.33;97752.95;;;;-49
2019/12/14 03:45:07;;;;;;;1.12;1.00;;;;;;;19.07;42.32;97760.49;;;;-48
2019/12/14 03:48:06;;;;;;;1.20;1.10;;;;;;;19.06;42.37;97757.70;;;;-52
2019/12/14 03:51:06;;;;;;;1.07;1.01;;;;;;;19.06;42.33;97771.68;;;;-45
2019/12/14 03:54:07;;;;;;;1.29;1.19;;;;;;;19.05;42.34;97758.72;;;;-49
2019/12/14 03:57:07;;;;;;;1.11;1.00;;;;;;;19.04;42.35;97747.75;;;;-48
2019/12/14 04:00:07;;;;;;;1.23;1.07;;;;;;;19.04;42.38;97740.81;;;;-48
2019/12/14 04:03:07;;;;;;;1.65;0.99;;;;;;;19.03;42.38;97722.17;;;;-48
2019/12/14 04:06:06;;;;;;;1.33;1.11;;;;;;;19.02;42.37;97724.94;;;;-48
2019/12/14 04:09:06;;;;;;;0.97;0.97;;;;;;;19.01;42.34;97722.75;;;;-48
2019/12/14 04:12:07;;;;;;;1.19;1.09;;;;;;;19.01;42.36;97719.92;;;;-48
2019/12/14 04:15:06;;;;;;;1.15;1.05;;;;;;;19.00;42.37;97713.14;;;;-48
2019/12/14 04:18:07;;;;;;;1.03;1.01;;;;;;;18.99;42.37;97708.55;;;;-47
2019/12/14 04:21:07;;;;;;;1.23;1.07;;;;;;;18.98;42.37;97708.44;;;;-48
2019/12/14 04:24:06;;;;;;;1.13;1.00;;;;;;;18.97;42.41;97710.45;;;;-48
2019/12/14 04:27:07;;;;;;;1.14;1.04;;;;;;;18.98;42.44;97710.62;;;;-48
2019/12/14 04:35:08;;;;;;;1.06;1.05;;;;;;;18.94;42.42;97675.69;;;;-48
2019/12/14 04:38:07;;;;;;;1.13;0.97;;;;;;;18.95;42.41;97678.77;;;;-48
2019/12/14 04:41:07;;;;;;;1.13;1.04;;;;;;;18.94;42.44;97684.61;;;;-48
2019/12/14 04:44:06;;;;;;;1.02;1.01;;;;;;;18.94;42.44;97675.58;;;;-48
2019/12/14 04:47:06;;;;;;;1.24;1.14;;;;;;;18.95;42.39;97674.59;;;;-47
2019/12/14 04:50:07;;;;;;;1.15;1.06;;;;;;;18.96;42.41;97677.09;;;;-47
2019/12/14 04:53:07;;;;;;;1.21;1.09;;;;;;;18.97;42.41;97685.78;;;;-48
2019/12/14 04:56:07;;;;;;;1.33;1.06;;;;;;;18.99;42.41;97680.70;;;;-48
2019/12/14 04:59:06;;;;;;;1.04;1.00;;;;;;;19.01;42.37;97677.17;;;;-48
2019/12/14 05:02:06;;;;;;;1.07;0.99;;;;;;;19.01;42.46;97676.43;;;;-46
2019/12/14 05:05:07;;;;;;;1.17;1.07;;;;;;;19.03;42.52;97673.26;;;;-45
2019/12/14 05:08:07;;;;;;;1.09;1.03;;;;;;;19.06;42.54;97684.28;;;;-45
2019/12/14 05:11:07;;;;;;;0.85;0.85;;;;;;;19.10;42.51;97692.41;;;;-47
2019/12/14 05:14:07;;;;;;;1.08;1.06;;;;;;;19.13;42.48;97694.57;;;;-46
2019/12/14 05:17:06;;;;;;;0.90;0.90;;;;;;;19.18;42.56;97694.95;;;;-46
2019/12/14 05:20:06;;;;;;;1.06;1.00;;;;;;;19.20;42.46;97691.13;;;;-46
2019/12/14 05:23:06;;;;;;;0.99;0.99;;;;;;;19.23;42.51;97692.62;;;;-46
2019/12/14 05:26:06;;;;;;;0.99;0.95;;;;;;;19.27;42.51;97694.64;;;;-45
2019/12/14 05:29:07;;;;;;;1.11;1.01;;;;;;;19.30;42.53;97695.47;;;;-46
2019/12/14 05:32:07;;;;;;;0.97;0.97;;;;;;;19.33;42.54;97700.23;;;;-46
2019/12/14 05:35:06;;;;;;;0.89;0.88;;;;;;;19.37;42.52;97704.41;;;;-46
2019/12/14 05:38:06;;;;;;;0.87;0.87;;;;;;;19.41;42.68;97703.33;;;;-46
2019/12/14 05:41:06;;;;;;;1.13;1.00;;;;;;;19.45;42.47;97703.57;;;;-46
2019/12/14 05:44:06;;;;;;;1.09;0.98;;;;;;;19.47;42.60;97702.73;;;;-46
2019/12/14 05:47:07;;;;;;;0.90;0.90;;;;;;;19.51;42.59;97689.52;;;;-46
2019/12/14 05:50:07;;;;;;;0.92;0.92;;;;;;;19.54;42.56;97696.38;;;;-46
2019/12/14 05:53:06;;;;;;;1.13;1.03;;;;;;;19.56;42.60;97698.13;;;;-46
2019/12/14 05:56:06;;;;;;;0.87;0.83;;;;;;;19.60;42.61;97700.45;;;;-45
2019/12/14 05:59:06;;;;;;;1.03;1.00;;;;;;;19.62;42.59;97709.75;;;;-46
2019/12/14 06:02:06;;;;;;;0.91;0.90;;;;;;;19.65;42.61;97716.86;;;;-49
2019/12/14 06:05:06;;;;;;;1.03;0.97;;;;;;;19.67;42.67;97715.69;;;;-50
2019/12/14 06:08:07;;;;;;;1.16;1.06;;;;;;;19.70;42.69;97711.85;;;;-49
2019/12/14 06:11:07;;;;;;;0.92;0.90;;;;;;;19.72;42.65;97709.00;;;;-49
2019/12/14 06:14:06;;;;;;;1.19;1.09;;;;;;;19.75;42.62;97700.30;;;;-50
2019/12/14 06:17:06;;;;;;;0.90;0.90;;;;;;;19.78;42.69;97698.03;;;;-49
2019/12/14 06:20:06;;;;;;;0.91;0.91;;;;;;;19.81;42.64;97699.10;;;;-49
2019/12/14 06:23:07;;;;;;;0.93;0.93;;;;;;;19.83;42.59;97694.91;;;;-50
2019/12/14 06:26:07;;;;;;;0.97;0.94;;;;;;;19.86;42.62;97694.58;;;;-50
2019/12/14 06:29:07;;;;;;;0.87;0.87;;;;;;;19.87;42.55;97688.03;;;;-49
2019/12/14 06:32:06;;;;;;;1.09;1.02;;;;;;;19.89;42.62;97696.98;;;;-49
2019/12/14 06:35:06;;;;;;;0.82;0.82;;;;;;;19.91;42.55;97700.34;;;;-49
2019/12/14 06:38:06;;;;;;;0.91;0.90;;;;;;;19.94;42.55;97715.13;;;;-49
2019/12/14 06:41:07;;;;;;;0.90;0.90;;;;;;;19.96;42.58;97717.83;;;;-50
2019/12/14 06:44:07;;;;;;;1.00;1.00;;;;;;;19.98;42.56;97720.70;;;;-49
2019/12/14 06:47:11;;;;;;;0.90;0.90;;;;;;;20.01;42.51;97732.24;;;;-49
2019/12/14 06:50:06;;;;;;;1.18;0.97;;;;;;;20.01;42.49;97740.30;;;;-49
2019/12/14 06:53:06;;;;;;;1.02;1.02;;;;;;;20.03;42.46;97744.13;;;;-49
2019/12/14 06:56:06;;;;;;;0.92;0.92;;;;;;;20.06;42.45;97756.02;;;;-49
2019/12/14 06:59:07;;;;;;;0.80;0.80;;;;;;;20.08;42.50;97758.87;;;;-49
2019/12/14 07:02:07;;;;;;;0.95;0.93;;;;;;;20.09;42.47;97769.16;;;;-49
2019/12/14 07:05:07;;;;;;;0.83;0.82;;;;;;;20.11;42.44;97768.83;;;;-49
2019/12/14 07:08:06;;;;;;;0.79;0.79;;;;;;;20.13;42.44;97780.64;;;;-49
2019/12/14 07:11:06;;;;;;;0.97;0.91;;;;;;;20.14;42.44;97782.89;;;;-50
2019/12/14 07:14:06;;;;;;;0.90;0.90;;;;;;;20.16;42.44;97795.37;;;;-49
2019/12/14 07:17:07;;;;;;;1.00;1.00;;;;;;;20.18;42.40;97815.05;;;;-49
2019/12/14 07:20:07;;;;;;;0.91;0.91;;;;;;;20.20;42.38;97818.84;;;;-49
2019/12/14 07:23:07;;;;;;;1.01;0.91;;;;;;;20.22;42.33;97830.80;;;;-49
2019/12/14 07:26:06;;;;;;;0.85;0.85;;;;;;;20.23;42.32;97842.88;;;;-49
2019/12/14 07:29:06;;;;;;;0.70;0.70;;;;;;;20.24;42.33;97866.58;;;;-49
2019/12/14 07:32:06;;;;;;;0.84;0.84;;;;;;;20.25;42.28;97884.27;;;;-49
2019/12/14 07:35:06;;;;;;;0.88;0.88;;;;;;;20.27;42.32;97889.52;;;;-49
2019/12/14 07:38:07;;;;;;;0.89;0.89;;;;;;;20.29;42.31;97895.72;;;;-49
2019/12/14 07:41:07;;;;;;;0.93;0.88;;;;;;;20.29;42.25;97926.33;;;;-50
2019/12/14 07:44:06;;;;;;;0.81;0.81;;;;;;;20.31;42.28;97938.88;;;;-50
2019/12/14 07:47:06;;;;;;;0.80;0.80;;;;;;;20.32;42.25;97945.75;;;;-49
2019/12/14 07:50:06;;;;;;;0.81;0.81;;;;;;;20.33;42.21;97955.80;;;;-49
2019/12/14 07:53:06;;;;;;;1.19;0.93;;;;;;;20.34;42.18;97977.77;;;;-49
2019/12/14 07:56:06;;;;;;;0.77;0.77;;;;;;;20.36;42.12;97995.69;;;;-50
2019/12/14 07:59:07;;;;;;;0.71;0.71;;;;;;;20.37;42.15;98019.16;;;;-49
2019/12/14 08:02:06;;;;;;;0.85;0.85;;;;;;;20.37;42.16;98030.39;;;;-49
2019/12/14 08:05:06;;;;;;;0.95;0.95;;;;;;;20.38;42.09;98044.08;;;;-49
2019/12/14 08:08:31;;;;;;;0.91;0.91;;;;;;;20.40;42.08;98061.31;;;;-49
2019/12/14 08:11:06;;;;;;;0.79;0.79;;;;;;;20.39;42.08;98080.10;;;;-50
2019/12/14 08:14:06;;;;;;;1.15;0.99;;;;;;;20.41;42.08;98101.13;;;;-49
2019/12/14 08:17:07;;;;;;;0.80;0.80;;;;;;;20.43;42.04;98126.80;;;;-49
2019/12/14 08:20:07;;;;;;;1.07;1.00;;;;;;;20.43;41.99;98143.05;;;;-50
2019/12/14 08:23:06;;;;;;;0.88;0.88;;;;;;;20.44;42.04;98182.12;;;;-50
2019/12/14 08:26:06;;;;;;;0.90;0.90;;;;;;;20.45;42.01;98177.16;;;;-49
2019/12/14 08:29:06;;;;;;;0.88;0.86;;;;;;;20.46;41.99;98195.37;;;;-49
2019/12/14 08:32:06;;;;;;;0.83;0.82;;;;;;;20.45;41.99;98219.34;;;;-50
2019/12/14 08:35:06;;;;;;;0.90;0.90;;;;;;;20.47;41.92;98234.03;;;;-49
2019/12/14 08:38:06;;;;;;;0.90;0.89;;;;;;;20.47;41.96;98249.77;;;;-49
2019/12/14 08:41:06;;;;;;;1.04;0.96;;;;;;;20.48;41.78;98269.31;;;;-49
2019/12/14 08:44:06;;;;;;;0.90;0.90;;;;;;;20.48;41.88;98285.84;;;;-49
2019/12/14 08:47:06;;;;;;;0.80;0.80;;;;;;;20.48;41.83;98294.61;;;;-49
2019/12/14 08:50:06;;;;;;;1.04;0.88;;;;;;;20.47;41.82;98304.92;;;;-50
2019/12/14 08:53:26;;;;;;;0.91;0.91;;;;;;;20.46;41.77;98326.90;;;;-49
2019/12/14 08:56:11;;;;;;;1.00;0.98;;;;;;;20.46;41.78;98337.13;;;;-49
2019/12/14 08:59:06;;;;;;;0.90;0.90;;;;;;;20.45;41.78;98356.56;;;;-49
2019/12/14 09:02:06;;;;;;;0.97;0.96;;;;;;;20.46;41.71;98363.03;;;;-49
2019/12/14 09:05:06;;;;;;;0.85;0.85;;;;;;;20.45;41.76;98368.30;;;;-49
2019/12/14 09:08:06;;;;;;;0.92;0.92;;;;;;;20.45;41.73;98376.00;;;;-49
2019/12/14 09:11:07;;;;;;;0.83;0.83;;;;;;;20.45;41.76;98377.19;;;;-51
2019/12/14 09:14:07;;;;;;;0.89;0.88;;;;;;;20.46;41.72;98399.25;;;;-47
2019/12/14 09:17:06;;;;;;;0.90;0.90;;;;;;;20.46;41.72;98413.05;;;;-47
2019/12/14 09:20:06;;;;;;;0.90;0.90;;;;;;;20.46;41.72;98418.78;;;;-47
2019/12/14 09:23:06;;;;;;;0.89;0.89;;;;;;;20.46;41.72;98432.59;;;;-47
2019/12/14 09:26:06;;;;;;;0.87;0.85;;;;;;;20.47;41.70;98453.56;;;;-50
2019/12/14 09:29:07;;;;;;;0.87;0.87;;;;;;;20.48;41.65;98462.63;;;;-52
2019/12/14 09:32:06;;;;;;;0.89;0.89;;;;;;;20.49;41.70;98479.98;;;;-51
2019/12/14 09:35:07;;;;;;;1.13;0.96;;;;;;;20.49;41.71;98484.52;;;;-51
2019/12/14 09:38:06;;;;;;;10.37;1.21;;;;;;;20.54;41.97;98486.06;;;;-60
2019/12/14 09:41:06;;;;;;;2.37;0.84;;;;;;;20.56;42.05;98492.69;;;;-59
2019/12/14 09:44:06;;;;;;;1.83;1.01;;;;;;;20.59;42.15;98497.58;;;;-61
2019/12/14 09:47:06;;;;;;;2.69;1.22;;;;;;;20.63;42.20;98489.48;;;;-54
2019/12/14 09:50:07;;;;;;;2.75;1.24;;;;;;;20.64;42.08;98503.73;;;;-55
2019/12/14 09:53:07;;;;;;;3.86;1.11;;;;;;;20.67;42.27;98513.40;;;;-53
2019/12/14 09:56:06;;;;;;;1.24;1.10;;;;;;;20.69;42.31;98515.44;;;;-54
2019/12/14 09:59:06;;;;;;;0.87;0.87;;;;;;;20.72;42.23;98524.01;;;;-57
2019/12/14 10:02:06;;;;;;;4.98;1.51;;;;;;;20.75;42.38;98532.09;;;;-56
2019/12/14 10:05:06;;;;;;;2.35;1.11;;;;;;;20.76;41.76;98533.34;;;;-57
2019/12/14 10:08:07;;;;;;;1.25;1.00;;;;;;;20.76;41.42;98543.23;;;;-57
2019/12/14 10:11:07;;;;;;;1.91;1.03;;;;;;;20.78;41.35;98557.62;;;;-58
2019/12/14 10:14:06;;;;;;;2.19;1.01;;;;;;;20.79;41.59;98555.01;;;;-59
2019/12/14 10:17:06;;;;;;;1.78;1.09;;;;;;;20.81;42.11;98555.39;;;;-53
2019/12/14 10:20:06;;;;;;;5.22;1.36;;;;;;;20.77;40.78;98572.61;;;;-54
2019/12/14 10:23:06;;;;;;;6.13;1.56;;;;;;;20.79;41.00;98565.74;;;;-53
2019/12/14 10:26:06;;;;;;;1.44;1.00;;;;;;;20.78;41.25;98558.45;;;;-54
2019/12/14 10:29:06;;;;;;;3.44;1.30;;;;;;;20.81;41.59;98557.00;;;;-55
2019/12/14 10:32:06;;;;;;;3.16;1.27;;;;;;;20.79;41.17;98559.20;;;;-54
2019/12/14 10:35:06;;;;;;;3.55;1.17;;;;;;;20.79;41.32;98566.10;;;;-55
2019/12/14 10:38:06;;;;;;;1.24;1.14;;;;;;;20.79;41.41;98564.23;;;;-55
2019/12/14 10:41:06;;;;;;;4.09;1.08;;;;;;;20.79;41.40;98566.35;;;;-54
2019/12/14 10:44:06;;;;;;;1.97;1.00;;;;;;;20.79;41.45;98566.61;;;;-55
2019/12/14 10:47:06;;;;;;;2.01;1.03;;;;;;;20.79;41.43;98567.52;;;;-55
2019/12/14 10:50:06;;;;;;;2.09;1.11;;;;;;;20.79;41.40;98565.58;;;;-54
2019/12/14 10:53:06;;;;;;;1.87;1.15;;;;;;;20.78;41.46;98576.41;;;;-58
2019/12/14 10:56:06;;;;;;;3.97;1.28;;;;;;;20.77;41.50;98617.75;;;;-52
2019/12/14 10:59:15;;;;;;;2.36;1.51;;;;;;;20.76;40.91;98646.59;;;;-52
2019/12/14 11:02:14;;;;;;;3.51;1.43;;;;;;;20.75;40.88;98665.61;;;;-52
2019/12/14 11:05:08;;;;;;;2.75;1.54;;;;;;;20.75;40.92;98674.93;;;;-54
2019/12/14 11:08:07;;;;;;;1.49;1.31;;;;;;;20.75;40.81;98679.03;;;;-54
2019/12/14 11:11:06;;;;;;;3.06;1.30;;;;;;;20.76;40.79;98680.38;;;;-54
2019/12/14 11:14:06;;;;;;;3.74;1.46;;;;;;;20.81;41.35;98696.98;;;;-58
2019/12/14 11:17:06;;;;;;;1.67;1.32;;;;;;;20.83;41.43;98706.42;;;;-57
2019/12/14 11:20:06;;;;;;;3.21;1.30;;;;;;;20.86;41.49;98711.70;;;;-62
2019/12/14 11:23:06;;;;;;;4.24;1.31;;;;;;;20.90;42.01;98728.86;;;;-61
2019/12/14 11:26:06;;;;;;;2.03;1.30;;;;;;;20.92;42.66;98710.02;;;;-61
2019/12/14 11:29:07;;;;;;;4.63;1.15;;;;;;;20.96;42.90;98714.16;;;;-58
2019/12/14 11:32:06;;;;;;;2.79;1.19;;;;;;;20.97;42.63;98717.95;;;;-56
2019/12/14 11:35:06;;;;;;;3.33;1.42;;;;;;;21.01;43.26;98714.98;;;;-63
2019/12/14 11:38:06;;;;;;;5.42;1.67;;;;;;;21.04;42.97;98718.02;;;;-52
2019/12/14 11:41:06;;;;;;;3.89;1.33;;;;;;;21.08;43.45;98731.64;;;;-54
2019/12/14 11:44:06;;;;;;;3.21;1.29;;;;;;;21.09;43.36;98730.81;;;;-53
2019/12/14 11:47:07;;;;;;;365.32;11.75;;;;;;;21.11;43.69;98740.75;;;;-55
2019/12/14 11:50:06;;;;;;;1.93;1.31;;;;;;;21.12;43.34;98765.25;;;;-56
2019/12/14 11:53:06;;;;;;;3.89;1.17;;;;;;;21.12;42.91;98768.94;;;;-53
2019/12/14 11:56:06;;;;;;;2.26;1.28;;;;;;;21.12;42.75;98770.38;;;;-59
2019/12/14 11:59:06;;;;;;;1.77;1.28;;;;;;;21.12;42.78;98770.88;;;;-57
2019/12/14 12:02:06;;;;;;;2.51;1.30;;;;;;;21.14;42.60;98770.06;;;;-54
2019/12/14 12:05:06;;;;;;;4.11;1.41;;;;;;;21.13;42.71;98770.72;;;;-60
2019/12/14 12:08:06;;;;;;;2.68;1.39;;;;;;;21.16;42.74;98781.67;;;;-55
2019/12/14 12:11:06;;;;;;;1.31;1.17;;;;;;;21.17;42.70;98787.88;;;;-59
2019/12/14 12:14:06;;;;;;;1.79;1.19;;;;;;;21.20;43.04;98786.82;;;;-61
2019/12/14 12:17:08;;;;;;;1.81;1.26;;;;;;;21.19;42.56;98785.29;;;;-57
2019/12/14 12:20:06;;;;;;;3.91;1.31;;;;;;;21.22;42.87;98794.16;;;;-54
2019/12/14 12:23:06;;;;;;;8.29;1.49;;;;;;;21.19;42.30;98796.05;;;;-55
2019/12/14 12:26:06;;;;;;;4.29;1.43;;;;;;;21.17;42.04;98800.64;;;;-54
2019/12/14 12:29:06;;;;;;;2.17;1.38;;;;;;;21.16;42.01;98813.16;;;;-55
2019/12/14 12:32:06;;;;;;;2.33;1.30;;;;;;;21.17;41.99;98824.66;;;;-55
2019/12/14 12:35:06;;;;;;;1.67;1.28;;;;;;;21.14;41.86;98828.80;;;;-54
2019/12/14 12:38:07;;;;;;;2.93;1.26;;;;;;;21.13;41.91;98832.00;;;;-55
2019/12/14 12:41:07;;;;;;;2.28;1.17;;;;;;;21.13;41.90;98826.53;;;;-55
2019/12/14 12:44:07;;;;;;;2.17;1.37;;;;;;;21.12;41.83;98840.64;;;;-55
2019/12/14 12:47:06;;;;;;;1.97;1.34;;;;;;;21.11;41.78;98848.24;;;;-55
2019/12/14 12:50:06;;;;;;;1.91;1.30;;;;;;;21.10;41.79;98854.12;;;;-55
2019/12/14 12:53:06;;;;;;;2.24;1.30;;;;;;;21.10;41.76;98862.60;;;;-54
2019/12/14 12:56:06;;;;;;;2.75;1.32;;;;;;;21.09;41.75;98865.78;;;;-55
2019/12/14 12:59:06;;;;;;;1.99;1.36;;;;;;;21.08;41.72;98881.52;;;;-55
2019/12/14 13:02:07;;;;;;;1.37;1.18;;;;;;;21.08;41.69;98880.87;;;;-54
2019/12/14 13:05:06;;;;;;;1.96;1.29;;;;;;;21.07;41.68;98888.92;;;;-54
2019/12/14 13:08:07;;;;;;;1.32;1.21;;;;;;;21.07;41.65;98897.31;;;;-54
2019/12/14 13:11:06;;;;;;;1.39;1.21;;;;;;;21.06;41.65;98903.84;;;;-54
2019/12/14 13:14:06;;;;;;;1.76;1.30;;;;;;;21.06;41.63;98904.42;;;;-55
2019/12/14 13:17:07;;;;;;;2.13;1.20;;;;;;;21.05;41.62;98899.22;;;;-54
2019/12/14 13:20:06;;;;;;;2.16;1.30;;;;;;;21.04;41.62;98886.86;;;;-55
2019/12/14 13:23:06;;;;;;;1.75;1.30;;;;;;;21.05;41.58;98893.73;;;;-54
2019/12/14 13:26:06;;;;;;;1.61;1.30;;;;;;;21.05;41.58;98902.63;;;;-54
2019/12/14 13:29:06;;;;;;;3.00;1.29;;;;;;;21.04;41.55;98926.72;;;;-55
2019/12/14 13:32:06;;;;;;;1.69;1.20;;;;;;;21.04;41.58;98946.45;;;;-54
2019/12/14 13:35:06;;;;;;;1.51;1.30;;;;;;;21.04;41.59;98939.40;;;;-54
2019/12/14 13:38:13;;;;;;;1.28;1.18;;;;;;;21.04;41.56;98939.83;;;;-54
2019/12/14 13:41:06;;;;;;;2.81;1.20;;;;;;;21.04;41.55;98945.27;;;;-55
2019/12/14 13:44:06;;;;;;;1.41;1.20;;;;;;;21.04;41.56;98932.95;;;;-54
2019/12/14 13:47:06;;;;;;;1.80;1.25;;;;;;;21.04;41.57;98940.14;;;;-55
2019/12/14 13:50:06;;;;;;;2.29;1.22;;;;;;;21.07;41.71;98955.70;;;;-47
2019/12/14 13:53:06;;;;;;;3.81;1.44;;;;;;;21.10;42.05;98961.78;;;;-52
2019/12/14 13:56:06;;;;;;;4.23;1.53;;;;;;;21.10;42.04;98956.70;;;;-51
2019/12/14 13:59:06;;;;;;;11.63;2.00;;;;;;;21.13;42.31;98955.28;;;;-51
2019/12/14 14:02:06;;;;;;;2.27;1.37;;;;;;;21.13;42.23;98964.27;;;;-51
2019/12/14 14:05:06;;;;;;;4.33;1.54;;;;;;;21.15;42.21;98968.90;;;;-53
2019/12/14 14:08:06;;;;;;;1.63;1.33;;;;;;;21.16;42.09;98962.20;;;;-51
2019/12/14 14:11:06;;;;;;;5.56;1.63;;;;;;;21.18;42.03;98956.11;;;;-52
2019/12/14 14:14:06;;;;;;;3.19;1.41;;;;;;;21.17;41.63;98965.41;;;;-52
2019/12/14 14:17:06;;;;;;;2.95;1.40;;;;;;;21.15;41.67;98962.55;;;;-52
2019/12/14 14:20:06;;;;;;;2.42;1.31;;;;;;;21.14;41.61;98966.97;;;;-49
2019/12/14 14:23:07;;;;;;;2.88;1.44;;;;;;;21.14;41.53;98971.67;;;;-45
2019/12/14 14:26:06;;;;;;;4.27;1.57;;;;;;;21.15;41.81;98975.81;;;;-47
2019/12/14 14:29:06;;;;;;;3.13;1.55;;;;;;;21.17;41.93;98979.44;;;;-44
2019/12/14 14:32:06;;;;;;;3.97;1.51;;;;;;;21.20;41.83;98981.16;;;;-47
2019/12/14 14:35:06;;;;;;;2.49;1.46;;;;;;;21.21;41.88;98979.22;;;;-46
2019/12/14 14:38:07;;;;;;;3.38;1.59;;;;;;;21.21;41.67;98978.71;;;;-47
2019/12/14 14:41:06;;;;;;;5.21;1.70;;;;;;;21.23;41.69;98974.38;;;;-46
2019/12/14 14:44:11;;;;;;;2.67;1.48;;;;;;;21.25;41.89;98973.16;;;;-51
2019/12/14 14:48:06;;;;;;;3.57;1.69;;;;;;;21.28;42.26;98974.27;;;;-44
2019/12/14 14:51:06;;;;;;;2.25;1.35;;;;;;;21.28;42.14;98973.17;;;;-49
2019/12/14 14:54:06;;;;;;;7.56;1.61;;;;;;;21.29;41.88;98972.45;;;;-47
2019/12/14 14:57:06;;;;;;;3.47;1.67;;;;;;;21.27;41.87;98969.06;;;;-47
2019/12/14 15:00:06;;;;;;;3.70;1.51;;;;;;;21.24;41.68;98973.31;;;;-47
2019/12/14 15:03:06;;;;;;;1.81;1.40;;;;;;;21.25;41.68;98975.85;;;;-47
2019/12/14 15:06:06;;;;;;;2.57;1.31;;;;;;;21.24;41.67;98973.66;;;;-47
2019/12/14 15:09:06;;;;;;;2.04;1.30;;;;;;;21.23;41.62;98971.28;;;;-47
2019/12/14 15:12:06;;;;;;;3.01;1.45;;;;;;;21.22;41.55;98966.73;;;;-47
2019/12/14 15:15:06;;;;;;;2.48;1.50;;;;;;;21.22;41.64;98979.50;;;;-47
2019/12/14 15:18:06;;;;;;;1.94;1.41;;;;;;;21.21;41.57;98983.08;;;;-47
2019/12/14 15:21:06;;;;;;;1.98;1.40;;;;;;;21.20;41.59;98982.22;;;;-46
2019/12/14 15:24:06;;;;;;;2.25;1.40;;;;;;;21.21;41.59;98981.91;;;;-47
2019/12/14 15:27:06;;;;;;;2.95;1.43;;;;;;;21.21;41.56;98986.55;;;;-47
2019/12/14 15:30:06;;;;;;;3.00;1.47;;;;;;;21.20;41.58;98995.83;;;;-46
2019/12/14 15:33:06;;;;;;;1.57;1.30;;;;;;;21.19;41.62;98990.44;;;;-52
2019/12/14 15:36:06;;;;;;;2.02;1.33;;;;;;;21.20;41.58;98989.45;;;;-52
2019/12/14 15:39:06;;;;;;;1.45;1.27;;;;;;;21.20;41.58;98987.86;;;;-51
2019/12/14 15:42:06;;;;;;;1.79;1.37;;;;;;;21.20;41.63;98996.92;;;;-51
2019/12/14 15:45:06;;;;;;;1.58;1.20;;;;;;;21.20;41.58;98988.55;;;;-51
2019/12/14 15:48:06;;;;;;;2.99;1.45;;;;;;;21.20;41.60;98991.55;;;;-51
2019/12/14 15:51:06;;;;;;;2.91;1.42;;;;;;;21.20;41.55;99001.96;;;;-51
2019/12/14 15:54:06;;;;;;;2.57;1.49;;;;;;;21.21;41.55;99003.05;;;;-51
2019/12/14 15:57:06;;;;;;;1.43;1.26;;;;;;;21.21;41.53;99005.42;;;;-51
2019/12/14 16:00:06;;;;;;;2.12;1.40;;;;;;;21.20;41.55;99021.27;;;;-51
2019/12/14 16:03:06;;;;;;;2.03;1.27;;;;;;;21.21;41.53;99042.35;;;;-51
2019/12/14 16:06:06;;;;;;;1.99;1.39;;;;;;;21.20;41.57;99046.13;;;;-51
2019/12/14 16:09:06;;;;;;;1.77;1.35;;;;;;;21.21;41.56;99041.11;;;;-48
2019/12/14 16:12:06;;;;;;;1.89;1.30;;;;;;;21.21;41.57;99041.78;;;;-52
2019/12/14 16:15:06;;;;;;;2.43;1.31;;;;;;;21.23;41.55;99043.82;;;;-52
2019/12/14 16:18:06;;;;;;;1.60;1.20;;;;;;;21.22;41.54;99043.55;;;;-52
2019/12/14 16:21:06;;;;;;;1.40;1.20;;;;;;;21.22;41.55;99047.41;;;;-47
2019/12/14 16:24:06;;;;;;;1.98;1.40;;;;;;;21.22;41.56;99047.91;;;;-47
2019/12/14 16:27:06;;;;;;;2.79;1.40;;;;;;;21.23;41.57;99054.97;;;;-48
2019/12/14 16:30:06;;;;;;;1.75;1.31;;;;;;;21.22;41.59;99059.33;;;;-47
2019/12/14 16:33:06;;;;;;;2.55;1.48;;;;;;;21.23;41.58;99069.51;;;;-47
2019/12/14 16:36:06;;;;;;;1.77;1.36;;;;;;;21.23;41.54;99080.59;;;;-47
2019/12/14 16:39:06;;;;;;;2.06;1.30;;;;;;;21.25;41.64;99079.78;;;;-52
2019/12/14 16:42:06;;;;;;;4.57;1.61;;;;;;;21.25;41.31;99079.44;;;;-49
2019/12/14 16:45:06;;;;;;;2.79;1.58;;;;;;;21.25;41.05;99067.02;;;;-54
2019/12/14 16:48:06;;;;;;;3.69;1.50;;;;;;;21.27;40.93;99066.38;;;;-51
2019/12/14 16:51:06;;;;;;;1.67;1.40;;;;;;;21.27;40.95;99060.80;;;;-55
2019/12/14 16:54:06;;;;;;;3.19;1.60;;;;;;;21.28;41.15;99069.98;;;;-51
2019/12/14 16:57:06;;;;;;;3.09;1.68;;;;;;;21.28;40.71;99073.17;;;;-47
2019/12/14 17:00:07;;;;;;;2.65;1.61;;;;;;;21.27;40.84;99089.12;;;;-48
2019/12/14 17:03:07;;;;;;;3.28;1.63;;;;;;;21.31;41.71;99080.44;;;;-44
2019/12/14 17:06:07;;;;;;;4.12;1.80;;;;;;;21.33;41.21;99087.02;;;;-44
2019/12/14 17:09:06;;;;;;;5.06;1.48;;;;;;;21.37;41.21;99094.63;;;;-45